Time;durP1;ratioP1;P1;durP2;ratioP2;P2;SDS_P1;SDS_P2;PMS_P1;PMS_P2;Temp;Humidity;BMP_temperature;BMP_pressure;BME280_temperature;BME280_humidity;BME280_pressure;Samples;Min_cycle;Max_cycle;Signal;HPM_P1;HPM_P2
2022/07/31 00:01:14;;;;;;;4.82;2.67;;;18.70;99.90;;;;;;5056300;28;20036;-60
2022/07/31 00:03:42;;;;;;;;;;;18.70;99.90;;;;;;5052997;28;20045;-61
2022/07/31 00:06:07;;;;;;;2.40;2.20;;;18.70;99.90;;;;;;5056634;28;19927;-61
2022/07/31 00:08:34;;;;;;;5.75;2.13;;;18.70;99.90;;;;;;5058007;28;20484;-60
2022/07/31 00:10:59;;;;;;;2.97;2.40;;;18.70;99.90;;;;;;5056024;28;20658;-61
2022/07/31 00:13:25;;;;;;;3.22;2.58;;;18.70;99.90;;;;;;5055820;28;20116;-60
2022/07/31 00:15:51;;;;;;;2.75;2.10;;;18.70;99.90;;;;;;5058171;28;20098;-60
2022/07/31 00:18:16;;;;;;;4.97;2.80;;;18.70;99.90;;;;;;5059171;28;20143;-60
2022/07/31 00:20:43;;;;;;;3.83;2.15;;;18.70;99.90;;;;;;5056948;28;20076;-60
2022/07/31 00:23:09;;;;;;;6.55;2.88;;;18.70;99.90;;;;;;5054569;28;20052;-60
2022/07/31 00:25:34;;;;;;;3.10;2.35;;;18.60;99.90;;;;;;5058780;28;20443;-60
2022/07/31 00:28:00;;;;;;;3.55;2.95;;;18.60;99.90;;;;;;5056726;28;20044;-60
2022/07/31 00:30:26;;;;;;;2.47;2.28;;;18.60;99.90;;;;;;5059217;28;20102;-60
2022/07/31 00:32:52;;;;;;;4.63;2.50;;;18.60;99.90;;;;;;5052374;28;20707;-60
2022/07/31 00:35:17;;;;;;;4.43;2.28;;;18.60;99.90;;;;;;5056578;28;20033;-60
2022/07/31 00:37:43;;;;;;;3.70;2.13;;;18.50;99.90;;;;;;5058908;28;20037;-60
2022/07/31 00:40:12;;;;;;;3.17;2.70;;;18.50;99.90;;;;;;5058936;28;20453;-60
2022/07/31 00:42:38;;;;;;;5.50;2.40;;;18.50;99.90;;;;;;5056510;28;20404;-60
2022/07/31 00:45:04;;;;;;;2.55;2.20;;;18.50;99.90;;;;;;5052174;28;20490;-60
2022/07/31 00:47:30;;;;;;;4.20;2.60;;;18.50;99.90;;;;;;5060099;28;20447;-60
2022/07/31 00:49:55;;;;;;;4.78;2.15;;;18.40;99.90;;;;;;5052795;28;20055;-60
2022/07/31 00:52:21;;;;;;;2.85;2.60;;;18.40;99.90;;;;;;5059080;28;20377;-60
2022/07/31 00:54:47;;;;;;;3.10;2.60;;;18.40;99.90;;;;;;5055639;28;20048;-60
2022/07/31 00:57:14;;;;;;;2.78;2.55;;;18.40;99.90;;;;;;5056822;28;20040;-60
2022/07/31 00:59:40;;;;;;;4.13;2.60;;;18.40;99.90;;;;;;5054706;28;20053;-60
2022/07/31 01:02:07;;;;;;;8.27;2.90;;;18.40;99.90;;;;;;5051202;28;20069;-61
2022/07/31 01:04:32;;;;;;;6.70;2.70;;;18.40;99.90;;;;;;5054566;28;20488;-60
2022/07/31 01:06:59;;;;;;;6.60;3.28;;;18.40;99.90;;;;;;5054150;28;20048;-60
2022/07/31 01:09:25;;;;;;;3.92;2.38;;;18.40;99.90;;;;;;5054038;28;20154;-61
2022/07/31 01:12:24;;;;;;;2.75;2.55;;;18.40;99.90;;;;;;5054174;28;20132;-60
2022/07/31 01:14:56;;;;;;;6.78;2.60;;;18.40;99.90;;;;;;5055985;28;20041;-60
2022/07/31 01:17:23;;;;;;;;;;;18.40;99.90;;;;;;5057418;28;20395;-60
2022/07/31 01:19:51;;;;;;;4.05;2.47;;;18.30;99.90;;;;;;5056122;28;20035;-60
2022/07/31 01:22:55;;;;;;;4.15;2.55;;;18.30;99.90;;;;;;5052153;28;20137;-60
2022/07/31 01:25:57;;;;;;;3.40;2.83;;;18.30;99.90;;;;;;5062693;28;20040;-60
2022/07/31 01:28:44;;;;;;;;;;;18.30;99.90;;;;;;5053793;28;20082;-60
2022/07/31 01:31:15;;;;;;;9.40;3.13;;;18.30;99.90;;;;;;5053647;28;20295;-60
2022/07/31 01:33:47;;;;;;;3.08;2.70;;;18.30;99.90;;;;;;5059955;28;20127;-60
2022/07/31 01:36:20;;;;;;;3.53;3.22;;;18.30;99.90;;;;;;5057129;28;20040;-61
2022/07/31 01:38:50;;;;;;;5.70;3.10;;;18.20;99.90;;;;;;5057605;28;20048;-61
2022/07/31 01:41:18;;;;;;;3.47;3.17;;;18.20;99.90;;;;;;5056682;28;20064;-60
2022/07/31 01:43:48;;;;;;;3.55;3.25;;;18.20;99.90;;;;;;5057648;28;20049;-61
2022/07/31 01:46:17;;;;;;;7.22;3.63;;;18.20;99.90;;;;;;5057657;28;20344;-60
2022/07/31 01:48:43;;;;;;;4.78;3.25;;;18.20;99.90;;;;;;5056421;28;20056;-60
2022/07/31 01:51:12;;;;;;;4.18;3.22;;;18.20;99.90;;;;;;5056265;28;20040;-60
2022/07/31 01:53:39;;;;;;;6.05;3.08;;;18.20;99.90;;;;;;5059689;28;20049;-60
2022/07/31 01:56:06;;;;;;;5.13;3.38;;;18.20;99.90;;;;;;5054049;28;20072;-60
2022/07/31 01:58:35;;;;;;;4.97;3.70;;;18.20;99.90;;;;;;5055520;28;20045;-60
2022/07/31 02:01:02;;;;;;;6.53;3.53;;;18.20;99.90;;;;;;5060906;28;20414;-60
2022/07/31 02:03:29;;;;;;;3.03;2.83;;;18.10;99.90;;;;;;5058892;28;20198;-60
2022/07/31 02:05:56;;;;;;;4.35;2.97;;;18.20;99.90;;;;;;5055409;28;20044;-60
2022/07/31 02:08:22;;;;;;;4.57;2.80;;;18.10;99.90;;;;;;5057550;28;20069;-61
2022/07/31 02:10:51;;;;;;;5.38;3.13;;;18.10;99.90;;;;;;5056842;28;20128;-60
2022/07/31 02:13:18;;;;;;;4.05;3.03;;;18.10;99.90;;;;;;5058436;28;20033;-60
2022/07/31 02:15:45;;;;;;;6.45;3.42;;;18.10;99.90;;;;;;5054635;28;20483;-61
2022/07/31 02:18:11;;;;;;;6.60;2.92;;;18.10;99.90;;;;;;5053736;28;20037;-61
2022/07/31 02:20:39;;;;;;;2.97;2.72;;;18.10;99.90;;;;;;5056609;28;20090;-61
2022/07/31 02:23:05;;;;;;;3.33;2.97;;;18.00;99.90;;;;;;5054228;28;20033;-61
2022/07/31 02:25:34;;;;;;;4.78;2.80;;;18.00;99.90;;;;;;5063009;28;20094;-61
2022/07/31 02:28:01;;;;;;;3.28;2.97;;;18.00;99.90;;;;;;5063950;28;20488;-61
2022/07/31 02:30:30;;;;;;;2.90;2.58;;;18.00;99.90;;;;;;5062880;28;20037;-61
2022/07/31 02:32:57;;;;;;;5.07;2.88;;;18.00;99.90;;;;;;5063264;28;20045;-61
2022/07/31 02:35:24;;;;;;;3.00;2.47;;;18.00;99.90;;;;;;5059918;28;20040;-60
2022/07/31 02:37:53;;;;;;;4.22;2.83;;;18.00;99.90;;;;;;5061860;28;20076;-60
2022/07/31 02:40:19;;;;;;;3.65;2.92;;;18.00;99.90;;;;;;5059778;28;20458;-61
2022/07/31 02:42:46;;;;;;;3.95;2.40;;;18.00;99.90;;;;;;5063326;28;20410;-61
2022/07/31 02:45:12;;;;;;;10.07;3.35;;;18.00;99.90;;;;;;5058244;28;20524;-61
2022/07/31 02:47:39;;;;;;;4.50;2.47;;;18.00;99.90;;;;;;5061116;28;20438;-61
2022/07/31 02:50:05;;;;;;;5.13;2.47;;;18.00;99.90;;;;;;5061977;28;20036;-61
2022/07/31 02:52:32;;;;;;;4.65;2.35;;;18.00;99.90;;;;;;5058620;28;20045;-61
2022/07/31 02:54:58;;;;;;;3.63;2.55;;;18.00;99.90;;;;;;5057901;28;20045;-60
2022/07/31 02:57:24;;;;;;;3.15;2.35;;;18.00;99.90;;;;;;5058374;28;20337;-61
2022/07/31 02:59:50;;;;;;;4.90;2.45;;;18.00;99.90;;;;;;5057556;28;20510;-61
2022/07/31 03:02:15;;;;;;;3.70;2.53;;;18.10;99.90;;;;;;5060105;28;20055;-61
2022/07/31 03:04:41;;;;;;;3.25;2.70;;;18.10;99.90;;;;;;5059314;28;20045;-61
2022/07/31 03:07:07;;;;;;;3.35;2.83;;;18.00;99.90;;;;;;5061237;28;20033;-61
2022/07/31 03:09:33;;;;;;;4.10;2.72;;;18.00;99.90;;;;;;5059587;28;20051;-61
2022/07/31 03:11:58;;;;;;;6.15;2.60;;;18.00;99.90;;;;;;5055814;28;20049;-61
2022/07/31 03:14:25;;;;;;;2.58;2.38;;;18.00;99.90;;;;;;5054713;28;20037;-61
2022/07/31 03:16:52;;;;;;;6.78;2.90;;;18.10;99.90;;;;;;5057630;28;20041;-61
2022/07/31 03:19:20;;;;;;;4.65;3.25;;;18.00;99.90;;;;;;5059240;28;20037;-61
2022/07/31 03:21:47;;;;;;;3.05;2.78;;;18.00;99.90;;;;;;5053581;28;20423;-61
2022/07/31 03:24:13;;;;;;;2.60;2.40;;;18.00;99.90;;;;;;5059719;28;20091;-61
2022/07/31 03:26:39;;;;;;;5.22;2.75;;;17.90;99.90;;;;;;5057994;28;20048;-61
2022/07/31 03:29:04;;;;;;;4.22;2.63;;;17.90;99.90;;;;;;5060823;28;20087;-61
2022/07/31 03:31:30;;;;;;;4.55;2.50;;;17.90;99.90;;;;;;5062034;28;20044;-60
2022/07/31 03:33:56;;;;;;;4.20;2.70;;;17.90;99.90;;;;;;5057600;28;20040;-61
2022/07/31 03:36:22;;;;;;;6.65;3.05;;;17.80;99.90;;;;;;5057210;28;20037;-61
2022/07/31 03:38:48;;;;;;;4.38;2.33;;;17.80;99.90;;;;;;5058939;28;20060;-61
2022/07/31 03:41:14;;;;;;;2.80;2.60;;;18.00;99.90;;;;;;5058854;28;20037;-61
2022/07/31 03:43:42;;;;;;;2.88;2.55;;;17.80;99.90;;;;;;5055527;28;20072;-61
2022/07/31 03:46:08;;;;;;;5.18;2.85;;;17.80;99.90;;;;;;5056047;28;20144;-61
2022/07/31 03:48:35;;;;;;;2.50;2.30;;;17.70;99.90;;;;;;5059415;28;20075;-61
2022/07/31 03:51:01;;;;;;;3.40;2.50;;;17.70;99.90;;;;;;5057498;28;20045;-61
2022/07/31 03:53:28;;;;;;;7.15;2.78;;;17.80;99.90;;;;;;5059654;28;20040;-61
2022/07/31 03:55:54;;;;;;;5.43;2.67;;;17.70;99.90;;;;;;5059850;28;20049;-61
2022/07/31 03:58:21;;;;;;;10.93;2.95;;;17.60;99.90;;;;;;5058181;28;20601;-61
2022/07/31 04:00:47;;;;;;;4.65;2.78;;;17.60;99.90;;;;;;5055346;28;20445;-61
2022/07/31 04:03:13;;;;;;;6.90;3.03;;;17.60;99.90;;;;;;5056517;28;20069;-61
2022/07/31 04:05:40;;;;;;;3.67;2.80;;;17.50;99.90;;;;;;5056414;28;20051;-61
2022/07/31 04:08:07;;;;;;;2.88;2.58;;;17.50;99.90;;;;;;5064929;28;20056;-61
2022/07/31 04:10:32;;;;;;;2.65;2.28;;;17.50;99.90;;;;;;5057869;28;20040;-61
2022/07/31 04:12:58;;;;;;;3.92;2.67;;;17.50;99.90;;;;;;5055760;28;20056;-60
2022/07/31 04:15:24;;;;;;;2.92;2.65;;;17.50;99.90;;;;;;5057527;28;20037;-60
2022/07/31 04:17:49;;;;;;;3.80;2.83;;;17.50;99.90;;;;;;5056269;28;20098;-60
2022/07/31 04:20:15;;;;;;;4.07;2.80;;;17.50;99.90;;;;;;5060396;28;20032;-61
2022/07/31 04:22:41;;;;;;;3.20;2.90;;;17.50;99.90;;;;;;5056389;28;20500;-61
2022/07/31 04:25:07;;;;;;;2.97;2.72;;;17.60;99.90;;;;;;5055665;28;20424;-60
2022/07/31 04:27:35;;;;;;;5.80;3.25;;;17.50;99.90;;;;;;5057555;28;20040;-60
2022/07/31 04:30:01;;;;;;;3.75;3.20;;;17.50;99.90;;;;;;5057956;28;20184;-61
2022/07/31 04:32:27;;;;;;;4.25;3.28;;;17.50;99.90;;;;;;5057275;28;20048;-61
2022/07/31 04:34:53;;;;;;;4.10;2.83;;;17.50;99.90;;;;;;5059069;28;20051;-60
2022/07/31 04:37:18;;;;;;;3.58;3.28;;;17.50;99.90;;;;;;5058700;28;20055;-60
2022/07/31 04:39:44;;;;;;;4.75;3.15;;;17.50;99.90;;;;;;5060072;28;20049;-60
2022/07/31 04:42:10;;;;;;;4.05;3.38;;;17.50;99.90;;;;;;5055332;28;20052;-60
2022/07/31 04:44:36;;;;;;;4.88;3.72;;;17.50;99.90;;;;;;5055931;28;20044;-60
2022/07/31 04:47:04;;;;;;;3.30;3.00;;;17.50;99.90;;;;;;5057078;28;20183;-60
2022/07/31 04:49:31;;;;;;;3.63;3.33;;;17.50;99.90;;;;;;5057079;28;20059;-60
2022/07/31 04:51:57;;;;;;;3.55;3.28;;;17.50;99.90;;;;;;5054816;28;20040;-60
2022/07/31 04:54:23;;;;;;;3.60;3.30;;;17.50;99.90;;;;;;5052898;28;20037;-60
2022/07/31 04:56:49;;;;;;;4.00;3.33;;;17.60;99.90;;;;;;5056647;28;20044;-60
2022/07/31 04:59:19;;;;;;;5.47;4.00;;;17.60;99.90;;;;;;5060505;28;20048;-60
2022/07/31 05:01:46;;;;;;;4.32;2.95;;;17.60;99.90;;;;;;5054558;28;20072;-60
2022/07/31 05:04:12;;;;;;;4.00;3.60;;;17.60;99.90;;;;;;5057621;28;20042;-60
2022/07/31 05:06:40;;;;;;;4.13;3.22;;;17.60;99.90;;;;;;5062619;28;20117;-60
2022/07/31 05:09:08;;;;;;;6.47;3.80;;;17.60;99.90;;;;;;5062255;28;20051;-60
2022/07/31 05:11:34;;;;;;;3.72;3.10;;;17.60;99.90;;;;;;5059086;28;20403;-61
2022/07/31 05:14:02;;;;;;;4.38;3.17;;;17.60;99.90;;;;;;5059875;28;20428;-60
2022/07/31 05:16:29;;;;;;;5.90;3.17;;;17.60;99.90;;;;;;5058066;28;20036;-60
2022/07/31 05:18:55;;;;;;;8.35;3.88;;;17.60;99.90;;;;;;5077138;28;20545;-60
2022/07/31 05:21:21;;;;;;;6.68;3.47;;;17.70;99.90;;;;;;5057151;28;20029;-59
2022/07/31 05:23:49;;;;;;;5.00;3.70;;;17.70;99.90;;;;;;5055111;28;20049;-60
2022/07/31 05:26:16;;;;;;;3.60;3.38;;;17.80;99.90;;;;;;5056554;28;20488;-60
2022/07/31 05:28:42;;;;;;;4.28;3.28;;;17.80;99.90;;;;;;5055549;28;20044;-60
2022/07/31 05:31:08;;;;;;;4.40;3.35;;;17.90;99.90;;;;;;5061468;28;20071;-60
2022/07/31 05:33:35;;;;;;;5.13;3.50;;;17.90;99.90;;;;;;5055437;28;20041;-60
2022/07/31 05:36:01;;;;;;;6.53;3.70;;;17.90;99.90;;;;;;5054439;28;20052;-60
2022/07/31 05:38:27;;;;;;;3.75;3.38;;;17.90;99.90;;;;;;5058472;28;20051;-60
2022/07/31 05:40:53;;;;;;;4.03;3.15;;;18.00;99.90;;;;;;5054561;28;20075;-60
2022/07/31 05:43:19;;;;;;;4.68;4.03;;;18.00;99.90;;;;;;5059185;28;20077;-60
2022/07/31 05:45:47;;;;;;;7.85;3.35;;;18.00;99.90;;;;;;5054584;28;20052;-60
2022/07/31 05:48:14;;;;;;;3.47;3.25;;;18.10;99.90;;;;;;5054678;28;20040;-61
2022/07/31 05:50:42;;;;;;;7.90;3.65;;;18.10;99.90;;;;;;5056684;28;20102;-60
2022/07/31 05:53:10;;;;;;;3.80;3.50;;;18.10;99.90;;;;;;5056862;28;20044;-58
2022/07/31 05:55:36;;;;;;;7.20;3.33;;;18.20;99.90;;;;;;5056295;28;20060;-60
2022/07/31 05:58:02;;;;;;;7.00;3.67;;;18.20;99.90;;;;;;5058652;28;20045;-60
2022/07/31 06:00:29;;;;;;;3.55;3.25;;;18.30;99.90;;;;;;5060283;28;20388;-60
2022/07/31 06:02:55;;;;;;;7.47;3.60;;;18.30;99.90;;;;;;5058869;28;20052;-60
2022/07/31 06:05:21;;;;;;;6.88;3.72;;;18.30;99.90;;;;;;5061898;28;20055;-60
2022/07/31 06:07:49;;;;;;;4.32;3.40;;;18.40;99.90;;;;;;5063758;28;20127;-59
2022/07/31 06:10:15;;;;;;;4.13;3.65;;;18.40;99.90;;;;;;5063090;28;20045;-60
2022/07/31 06:12:40;;;;;;;4.57;3.67;;;18.50;99.90;;;;;;5058010;28;20384;-60
2022/07/31 06:15:06;;;;;;;4.18;3.72;;;18.50;99.90;;;;;;5061568;28;20119;-60
2022/07/31 06:17:32;;;;;;;5.00;3.72;;;18.50;99.90;;;;;;5060626;28;20044;-60
2022/07/31 06:19:58;;;;;;;5.97;3.53;;;18.60;99.90;;;;;;5059838;28;20113;-60
2022/07/31 06:22:23;;;;;;;6.13;3.72;;;18.60;99.90;;;;;;5058347;28;20047;-60
2022/07/31 06:24:49;;;;;;;4.03;3.63;;;18.70;99.90;;;;;;5059020;28;20065;-60
2022/07/31 06:27:14;;;;;;;4.00;3.70;;;18.70;99.90;;;;;;5060945;28;20533;-61
2022/07/31 06:29:40;;;;;;;7.40;3.97;;;18.80;99.90;;;;;;5056725;28;20132;-60
2022/07/31 06:32:07;;;;;;;7.55;4.30;;;18.90;99.90;;;;;;5065359;28;20075;-60
2022/07/31 06:34:33;;;;;;;3.47;3.20;;;18.90;99.90;;;;;;5065186;28;20048;-61
2022/07/31 06:36:59;;;;;;;4.40;3.67;;;18.90;99.90;;;;;;5059842;28;20108;-59
2022/07/31 06:39:24;;;;;;;8.40;4.10;;;19.00;99.90;;;;;;5062184;28;20059;-60
2022/07/31 06:41:50;;;;;;;4.40;3.50;;;19.00;99.90;;;;;;5059167;28;20040;-60
2022/07/31 06:44:18;;;;;;;4.20;3.53;;;19.10;99.90;;;;;;5057624;28;20500;-60
2022/07/31 06:46:47;;;;;;;5.05;3.55;;;19.10;99.90;;;;;;5054753;28;20037;-60
2022/07/31 06:49:13;;;;;;;4.35;3.95;;;19.20;99.90;;;;;;5060027;28;20055;-61
2022/07/31 06:51:39;;;;;;;6.38;3.75;;;19.20;99.90;;;;;;5058565;28;20124;-60
2022/07/31 06:54:07;;;;;;;6.20;3.95;;;19.20;99.90;;;;;;5060434;28;20094;-61
2022/07/31 06:56:34;;;;;;;5.85;4.25;;;19.30;99.90;;;;;;5060933;28;20123;-60
2022/07/31 06:59:00;;;;;;;5.78;4.28;;;19.30;99.90;;;;;;5057909;28;20117;-60
2022/07/31 07:01:25;;;;;;;6.47;3.83;;;19.40;99.90;;;;;;5057928;28;20057;-60
2022/07/31 07:03:51;;;;;;;6.90;4.32;;;19.40;99.90;;;;;;5058482;28;20032;-60
2022/07/31 07:06:17;;;;;;;6.65;3.83;;;19.40;99.90;;;;;;5058348;28;20040;-60
2022/07/31 07:08:43;;;;;;;6.35;4.05;;;19.50;99.90;;;;;;5060925;28;20033;-60
2022/07/31 07:11:08;;;;;;;4.38;3.75;;;19.50;99.90;;;;;;5063148;28;20044;-60
2022/07/31 07:13:34;;;;;;;6.40;3.70;;;19.60;99.90;;;;;;5059833;28;20044;-60
2022/07/31 07:16:00;;;;;;;5.43;4.15;;;19.50;99.90;;;;;;5062795;28;20445;-59
2022/07/31 07:18:25;;;;;;;4.18;3.75;;;19.50;99.90;;;;;;5052782;28;20041;-60
2022/07/31 07:20:51;;;;;;;4.47;4.07;;;19.50;99.90;;;;;;5061530;28;20051;-60
2022/07/31 07:23:17;;;;;;;6.68;4.20;;;19.50;99.90;;;;;;5069686;28;20586;-59
2022/07/31 07:25:43;;;;;;;6.53;4.53;;;19.60;99.90;;;;;;5069520;28;20048;-60
2022/07/31 07:28:09;;;;;;;5.20;4.10;;;19.60;99.90;;;;;;5061534;28;20043;-62
2022/07/31 07:30:35;;;;;;;6.32;4.57;;;19.60;99.90;;;;;;5062113;28;20049;-62
2022/07/31 07:33:01;;;;;;;4.47;4.07;;;19.60;99.90;;;;;;5060583;28;20037;-62
2022/07/31 07:35:27;;;;;;;4.30;3.92;;;19.60;99.90;;;;;;5055657;28;20174;-62
2022/07/31 07:37:53;;;;;;;7.50;4.65;;;19.70;99.90;;;;;;5057646;28;20037;-62
2022/07/31 07:40:19;;;;;;;6.88;4.63;;;19.70;99.90;;;;;;5059604;28;20052;-62
2022/07/31 07:42:45;;;;;;;5.45;4.70;;;19.70;99.90;;;;;;5058272;28;20075;-62
2022/07/31 07:45:11;;;;;;;5.32;4.25;;;19.70;99.90;;;;;;5060641;28;20064;-62
2022/07/31 07:47:38;;;;;;;5.43;3.92;;;19.70;99.90;;;;;;5060571;28;20048;-62
2022/07/31 07:50:06;;;;;;;7.28;4.60;;;19.80;99.90;;;;;;5055301;28;20041;-62
2022/07/31 07:52:35;;;;;;;6.47;4.55;;;19.90;99.90;;;;;;5055812;28;20045;-62
2022/07/31 07:55:01;;;;;;;5.88;5.05;;;19.90;99.90;;;;;;5056042;28;20039;-62
2022/07/31 07:57:27;;;;;;;11.82;5.10;;;20.00;99.90;;;;;;5056318;28;20045;-62
2022/07/31 07:59:52;;;;;;;6.13;5.20;;;20.10;99.90;;;;;;5056279;28;20052;-62
2022/07/31 08:02:18;;;;;;;6.85;5.35;;;20.10;99.90;;;;;;5056361;28;20168;-62
2022/07/31 08:04:44;;;;;;;7.45;5.30;;;20.10;99.90;;;;;;5057945;28;20040;-62
2022/07/31 08:07:10;;;;;;;9.50;5.22;;;20.10;99.90;;;;;;5058053;28;20541;-64
2022/07/31 08:09:36;;;;;;;5.93;5.43;;;20.20;99.90;;;;;;5057156;28;20045;-63
2022/07/31 08:12:03;;;;;;;5.95;5.32;;;20.20;99.90;;;;;;5067471;28;20049;-62
2022/07/31 08:14:29;;;;;;;5.13;4.63;;;20.20;99.90;;;;;;5040790;28;20051;-62
2022/07/31 08:16:55;;;;;;;7.05;5.28;;;20.20;99.90;;;;;;5058906;28;20109;-61
2022/07/31 08:19:21;;;;;;;9.23;5.40;;;20.20;99.90;;;;;;5058766;28;20040;-59
2022/07/31 08:21:47;;;;;;;5.47;5.00;;;20.20;99.90;;;;;;5056553;28;20037;-62
2022/07/31 08:24:15;;;;;;;6.47;5.35;;;20.20;99.90;;;;;;5053122;28;21998;-65
2022/07/31 08:29:26;;;;;;;6.50;5.90;;;20.30;99.90;;;;;;5051786;28;20127;-64
2022/07/31 08:31:52;;;;;;;6.22;5.63;;;20.30;99.90;;;;;;5055787;28;20074;-64
2022/07/31 08:34:17;;;;;;;6.40;5.53;;;20.30;99.90;;;;;;5054270;28;20419;-63
2022/07/31 08:36:43;;;;;;;10.48;5.88;;;20.40;99.90;;;;;;5058144;28;20115;-64
2022/07/31 08:39:09;;;;;;;6.43;5.68;;;20.40;99.90;;;;;;5053283;28;20040;-64
2022/07/31 08:41:39;;;;;;;6.47;5.82;;;20.40;99.90;;;;;;5060588;28;20088;-63
2022/07/31 08:44:06;;;;;;;6.93;6.07;;;20.40;99.90;;;;;;5059487;28;20056;-62
2022/07/31 08:46:35;;;;;;;7.00;5.93;;;20.40;99.90;;;;;;5055163;28;20045;-63
2022/07/31 08:49:02;;;;;;;9.80;6.75;;;20.40;99.90;;;;;;5055419;28;20037;-63
2022/07/31 08:51:31;;;;;;;8.15;6.05;;;20.40;99.90;;;;;;5061229;28;20243;-63
2022/07/31 08:53:59;;;;;;;7.40;6.15;;;20.40;99.90;;;;;;5058376;28;20071;-64
2022/07/31 08:56:25;;;;;;;7.30;5.80;;;20.30;99.90;;;;;;5059176;28;20052;-64
2022/07/31 08:58:50;;;;;;;8.18;7.38;;;20.30;99.90;;;;;;5056598;28;20423;-65
2022/07/31 09:01:16;;;;;;;8.60;7.07;;;20.30;99.90;;;;;;5057852;28;20048;-64
2022/07/31 09:03:42;;;;;;;8.65;7.43;;;20.20;99.90;;;;;;5059159;28;20086;-64
2022/07/31 09:06:08;;;;;;;9.65;7.53;;;20.20;99.90;;;;;;5056415;28;20052;-60
2022/07/31 09:08:35;;;;;;;11.80;9.32;;;20.10;99.90;;;;;;5057919;28;20033;-60
2022/07/31 09:11:08;;;;;;;10.07;8.10;;;20.00;99.90;;;;;;5062226;28;20044;-65
2022/07/31 09:13:34;;;;;;;13.68;9.20;;;19.90;99.90;;;;;;5056258;28;20049;-61
2022/07/31 09:16:01;;;;;;;12.02;8.43;;;19.90;99.90;;;;;;5060369;28;20056;-61
2022/07/31 09:18:26;;;;;;;10.07;8.65;;;19.80;99.90;;;;;;5058687;28;20052;-61
2022/07/31 09:20:58;;;;;;;13.40;9.88;;;19.80;99.90;;;;;;5055872;28;20037;-60
2022/07/31 09:23:25;;;;;;;15.15;9.40;;;19.70;99.90;;;;;;5053875;28;20041;-61
2022/07/31 09:26:17;;;;;;;11.40;9.73;;;19.70;99.90;;;;;;5057696;28;20110;-62
2022/07/31 09:28:49;;;;;;;11.80;10.60;;;19.70;99.90;;;;;;5053687;28;20056;-63
2022/07/31 09:31:15;;;;;;;12.80;10.52;;;19.70;99.90;;;;;;5065842;28;20058;-61
2022/07/31 09:33:45;;;;;;;13.77;10.27;;;19.70;99.90;;;;;;5059813;28;20045;-62
2022/07/31 09:36:12;;;;;;;10.85;9.43;;;19.70;99.90;;;;;;5054982;28;20170;-61
2022/07/31 09:38:39;;;;;;;11.60;10.07;;;19.70;99.90;;;;;;5053087;28;20040;-59
2022/07/31 09:41:10;;;;;;;12.13;10.50;;;19.60;99.90;;;;;;5054059;28;20056;-59
2022/07/31 09:43:36;;;;;;;14.18;10.75;;;19.60;99.90;;;;;;5052855;28;20037;-59
2022/07/31 09:46:03;;;;;;;15.10;10.70;;;19.60;99.90;;;;;;5054733;28;20052;-65
2022/07/31 09:48:29;;;;;;;11.93;9.90;;;19.60;99.90;;;;;;5038773;28;20047;-66
2022/07/31 09:50:56;;;;;;;12.52;10.68;;;19.60;99.90;;;;;;5046563;28;20041;-64
2022/07/31 09:53:23;;;;;;;13.45;10.95;;;19.60;99.90;;;;;;5051729;28;20475;-63
2022/07/31 09:55:53;;;;;;;12.90;9.82;;;19.60;99.90;;;;;;5059027;28;20041;-69
2022/07/31 09:58:19;;;;;;;15.48;11.35;;;19.50;99.90;;;;;;5059314;28;20512;-67
2022/07/31 10:00:46;;;;;;;12.63;11.38;;;19.50;99.90;;;;;;5062281;28;20114;-68
2022/07/31 10:03:13;;;;;;;17.27;11.07;;;19.50;99.90;;;;;;5050238;28;20391;-69
2022/07/31 10:05:41;;;;;;;14.88;11.15;;;19.50;99.90;;;;;;5051167;28;20076;-66
2022/07/31 10:08:09;;;;;;;14.32;11.02;;;19.40;99.90;;;;;;5057810;28;20037;-68
2022/07/31 10:10:35;;;;;;;13.95;11.43;;;19.50;99.90;;;;;;5063966;28;20048;-68
2022/07/31 10:13:07;;;;;;;14.40;12.10;;;19.50;99.90;;;;;;5064070;28;20049;-68
2022/07/31 10:15:35;;;;;;;15.13;12.48;;;19.50;99.90;;;;;;5067441;28;20396;-68
2022/07/31 10:18:02;;;;;;;14.50;11.70;;;19.60;99.90;;;;;;5065325;28;20458;-68
2022/07/31 10:20:30;;;;;;;14.45;12.30;;;19.60;99.90;;;;;;5067032;28;20075;-68
2022/07/31 10:23:04;;;;;;;15.00;12.02;;;19.60;99.90;;;;;;5066869;28;20040;-68
2022/07/31 10:25:30;;;;;;;13.70;11.57;;;19.50;99.90;;;;;;5066781;28;20141;-68
2022/07/31 10:27:56;;;;;;;14.77;12.27;;;19.50;99.90;;;;;;5066784;28;20036;-68
2022/07/31 10:30:23;;;;;;;13.60;12.10;;;19.40;99.90;;;;;;5065855;28;20037;-68
2022/07/31 10:32:50;;;;;;;16.40;12.93;;;19.40;99.90;;;;;;5065969;28;20049;-68
2022/07/31 10:35:17;;;;;;;15.30;13.07;;;19.40;99.90;;;;;;5066999;28;20088;-68
2022/07/31 10:38:17;;;;;;;16.95;13.80;;;19.40;99.90;;;;;;5065925;28;20492;-68
2022/07/31 10:40:48;;;;;;;19.23;13.65;;;19.40;99.90;;;;;;5059114;28;20057;-68
2022/07/31 10:43:45;;;;;;;14.63;12.87;;;19.30;99.90;;;;;;5067068;28;20059;-68
2022/07/31 10:46:11;;;;;;;14.43;12.63;;;19.30;99.90;;;;;;5068987;28;20072;-68
2022/07/31 10:48:37;;;;;;;15.82;12.95;;;19.30;99.90;;;;;;5065568;28;20041;-67
2022/07/31 10:51:08;;;;;;;16.48;12.50;;;19.30;99.90;;;;;;5053001;28;20154;-63
2022/07/31 10:53:35;;;;;;;17.30;13.70;;;19.30;99.90;;;;;;5062202;28;20075;-62
2022/07/31 10:56:12;;;;;;;13.90;12.38;;;19.30;99.90;;;;;;5055071;28;20701;-61
2022/07/31 10:58:53;;;;;;;14.18;12.70;;;19.20;99.90;;;;;;5053524;28;20930;-69
2022/07/31 11:01:18;;;;;;;12.73;10.57;;;19.30;99.90;;;;;;5057203;28;20116;-62
2022/07/31 11:03:48;;;;;;;10.38;9.48;;;19.20;99.90;;;;;;5060964;28;20159;-64
2022/07/31 11:06:16;;;;;;;9.63;8.73;;;19.20;99.90;;;;;;5058024;28;20049;-64
2022/07/31 11:08:51;;;;;;;11.68;10.68;;;19.20;99.90;;;;;;5051773;28;20419;-65
2022/07/31 11:11:17;;;;;;;12.38;10.73;;;19.10;99.90;;;;;;5054916;28;20123;-65
2022/07/31 11:13:56;;;;;;;12.02;10.93;;;19.20;99.90;;;;;;5062311;28;20040;-66
2022/07/31 11:16:22;;;;;;;13.18;10.75;;;19.20;99.90;;;;;;5061212;28;20052;-66
2022/07/31 11:19:05;;;;;;;13.07;11.73;;;19.20;99.90;;;;;;5056215;28;20483;-66
2022/07/31 11:21:41;;;;;;;12.15;11.05;;;19.20;99.90;;;;;;5055770;28;20405;-66
2022/07/31 11:24:15;;;;;;;14.60;12.02;;;19.20;99.90;;;;;;5048987;28;20053;-66
2022/07/31 11:26:49;;;;;;;13.93;12.55;;;19.20;99.90;;;;;;5056314;28;20063;-67
2022/07/31 11:29:25;;;;;;;12.48;10.95;;;19.10;99.90;;;;;;5057812;28;20067;-64
2022/07/31 11:31:51;;;;;;;12.65;11.35;;;19.20;99.90;;;;;;5056268;28;20080;-67
2022/07/31 11:34:17;;;;;;;13.77;12.40;;;19.10;99.90;;;;;;5055093;28;20686;-65
2022/07/31 11:36:43;;;;;;;14.20;11.98;;;19.10;99.90;;;;;;5058555;28;20067;-65
2022/07/31 11:39:11;;;;;;;13.13;11.43;;;19.10;99.90;;;;;;5051496;28;20506;-65
2022/07/31 11:41:37;;;;;;;13.52;11.57;;;19.20;99.90;;;;;;5052717;28;20116;-65
2022/07/31 11:44:03;;;;;;;12.45;11.32;;;19.10;99.90;;;;;;5049546;28;20056;-65
2022/07/31 11:46:33;;;;;;;12.80;11.45;;;19.20;99.90;;;;;;5050057;28;20099;-63
2022/07/31 11:49:00;;;;;;;11.27;10.18;;;19.20;99.90;;;;;;5053509;28;20131;-64
2022/07/31 11:51:27;;;;;;;13.88;11.07;;;19.10;99.90;;;;;;5058175;28;20055;-65
2022/07/31 11:53:54;;;;;;;11.95;10.85;;;19.10;99.90;;;;;;5064854;28;20044;-63
2022/07/31 11:56:20;;;;;;;11.70;10.60;;;19.10;99.90;;;;;;5054208;28;20227;-64
2022/07/31 11:58:51;;;;;;;12.80;11.57;;;19.10;99.90;;;;;;5053062;28;20453;-64
2022/07/31 12:01:18;;;;;;;13.27;11.93;;;19.10;99.90;;;;;;5056231;28;20052;-64
2022/07/31 12:03:45;;;;;;;12.93;11.23;;;19.10;99.90;;;;;;5053746;28;20116;-64
2022/07/31 12:06:11;;;;;;;15.65;13.57;;;19.00;99.90;;;;;;5059623;28;20041;-64
2022/07/31 12:08:39;;;;;;;14.35;12.95;;;19.10;99.90;;;;;;5055800;28;20047;-64
2022/07/31 12:11:06;;;;;;;14.57;13.00;;;18.90;99.90;;;;;;5056290;28;20590;-64
2022/07/31 12:13:33;;;;;;;14.38;12.90;;;18.90;99.90;;;;;;5059319;28;20080;-64
2022/07/31 12:16:04;;;;;;;14.10;12.70;;;18.80;99.90;;;;;;5031768;28;20049;-64
2022/07/31 12:18:44;;;;;;;15.02;13.43;;;18.80;99.90;;;;;;5049781;28;20048;-64
2022/07/31 12:21:09;;;;;;;14.85;13.40;;;18.80;99.90;;;;;;5059421;28;20090;-64
2022/07/31 12:23:50;;;;;;;14.98;12.48;;;18.80;99.90;;;;;;5053340;28;20119;-64
2022/07/31 12:26:27;;;;;;;13.93;12.63;;;18.80;99.90;;;;;;5054452;28;20511;-64
2022/07/31 12:29:12;;;;;;;13.70;12.30;;;18.80;99.90;;;;;;5057435;28;20047;-64
2022/07/31 12:31:53;;;;;;;13.82;12.43;;;18.80;99.90;;;;;;5047874;28;20408;-64
2022/07/31 12:34:25;;;;;;;13.07;10.88;;;18.80;99.90;;;;;;5052836;28;20045;-64
2022/07/31 12:37:02;;;;;;;12.57;11.15;;;18.90;99.90;;;;;;5049546;28;20060;-64
2022/07/31 12:39:29;;;;;;;10.27;9.30;;;18.90;99.90;;;;;;5056607;28;20041;-64
2022/07/31 12:41:55;;;;;;;10.30;9.30;;;18.90;99.90;;;;;;5055863;28;20102;-64
2022/07/31 12:44:21;;;;;;;9.13;8.30;;;18.90;99.90;;;;;;5063580;28;20037;-64
2022/07/31 12:46:46;;;;;;;9.95;8.95;;;19.00;99.90;;;;;;5054641;28;20599;-64
2022/07/31 12:49:12;;;;;;;9.27;8.38;;;19.00;99.90;;;;;;5048505;28;20518;-64